Time;durP1;ratioP1;P1;durP2;ratioP2;P2;SDS_P1;SDS_P2;PMS_P1;PMS_P2;Temp;Humidity;BMP_temperature;BMP_pressure;BME280_temperature;BME280_humidity;BME280_pressure;Samples;Min_cycle;Max_cycle;Signal;HPM_P1;HPM_P2
2021/11/08 00:01:22;;;;;;;11.93;5.30;;;9.60;77.40;;;;;;5032668;28;20033;-79
2021/11/08 00:03:51;;;;;;;15.40;6.00;;;9.60;77.60;;;;;;5034520;28;20028;-79
2021/11/08 00:06:18;;;;;;;11.82;5.65;;;9.50;77.60;;;;;;5019673;28;20086;-79
2021/11/08 00:08:44;;;;;;;13.68;5.13;;;9.50;77.50;;;;;;5037119;28;20057;-79
2021/11/08 00:11:10;;;;;;;15.77;6.38;;;9.40;77.80;;;;;;5020664;28;20056;-79
2021/11/08 00:13:37;;;;;;;12.85;5.22;;;9.30;77.90;;;;;;5038515;28;20032;-79
2021/11/08 00:21:07;;;;;;;14.10;6.65;;;9.30;77.80;;;;;;5014461;28;20059;-79
2021/11/08 00:23:33;;;;;;;15.35;6.43;;;9.30;77.30;;;;;;5026554;28;20113;-79
2021/11/08 00:26:02;;;;;;;12.93;6.63;;;9.30;77.90;;;;;;5014910;28;20029;-79
2021/11/08 00:28:29;;;;;;;12.45;5.63;;;9.30;77.80;;;;;;5013896;28;20033;-79
2021/11/08 00:30:58;;;;;;;11.30;6.00;;;9.30;77.70;;;;;;5026350;28;20072;-79
2021/11/08 00:33:24;;;;;;;13.63;7.43;;;9.30;77.80;;;;;;5021742;28;20030;-79
2021/11/08 00:35:55;;;;;;;16.23;7.28;;;9.30;77.90;;;;;;5014545;28;20038;-79
2021/11/08 00:38:22;;;;;;;16.10;6.78;;;9.30;77.80;;;;;;5015135;28;20026;-79
2021/11/08 00:40:48;;;;;;;14.88;6.55;;;9.30;77.70;;;;;;5014756;28;20030;-80
2021/11/08 00:43:15;;;;;;;15.60;6.78;;;9.30;77.70;;;;;;5023148;28;20052;-79
2021/11/08 00:45:41;;;;;;;17.35;7.20;;;9.40;77.50;;;;;;5035410;28;20447;-79
2021/11/08 00:48:08;;;;;;;19.15;8.02;;;9.40;77.60;;;;;;5034472;28;20029;-79
2021/11/08 00:50:34;;;;;;;16.25;6.78;;;9.50;77.60;;;;;;5034375;28;20067;-79
2021/11/08 00:53:01;;;;;;;16.48;6.75;;;9.50;77.60;;;;;;5025172;28;20109;-79
2021/11/08 00:55:29;;;;;;;15.93;6.78;;;9.40;77.70;;;;;;5014292;28;20057;-79
2021/11/08 00:57:58;;;;;;;15.82;7.40;;;9.40;77.70;;;;;;5015051;28;20018;-79
2021/11/08 01:00:27;;;;;;;20.75;6.63;;;9.30;77.80;;;;;;5016790;28;20397;-79
2021/11/08 01:02:53;;;;;;;18.00;6.38;;;9.30;77.70;;;;;;5043441;28;20514;-79
2021/11/08 01:05:19;;;;;;;17.92;6.65;;;9.30;77.70;;;;;;5058382;28;20048;-79
2021/11/08 01:07:46;;;;;;;12.75;6.95;;;9.30;77.70;;;;;;5028785;28;20053;-79
2021/11/08 01:13:07;;;;;;;15.25;5.68;;;9.30;77.80;;;;;;5021534;28;20504;-79
2021/11/08 01:15:32;;;;;;;13.52;6.25;;;9.20;77.90;;;;;;5018086;28;20168;-79
2021/11/08 01:17:58;;;;;;;13.90;6.50;;;9.20;78.00;;;;;;5030480;28;20086;-79
2021/11/08 01:20:31;;;;;;;11.95;5.82;;;9.20;77.90;;;;;;5028648;28;20146;-79
2021/11/08 01:22:58;;;;;;;13.20;6.57;;;9.20;77.80;;;;;;5017226;28;20558;-79
2021/11/08 01:25:23;;;;;;;12.20;6.13;;;9.20;77.80;;;;;;5018351;28;20022;-79
2021/11/08 01:27:53;;;;;;;15.38;6.70;;;9.10;77.70;;;;;;5018312;28;20040;-79
2021/11/08 01:30:24;;;;;;;16.20;6.93;;;9.00;77.40;;;;;;5032720;28;20025;-79
2021/11/08 01:35:58;;;;;;;18.35;7.30;;;9.00;78.00;;;;;;5041470;28;20125;-79
2021/11/08 01:38:26;;;;;;;20.00;7.43;;;9.00;77.90;;;;;;5031866;28;20113;-79
2021/11/08 01:40:52;;;;;;;16.05;6.82;;;9.00;78.00;;;;;;5034370;28;20029;-79
2021/11/08 01:43:20;;;;;;;15.98;7.03;;;9.00;78.00;;;;;;5057704;28;20404;-79
2021/11/08 01:45:46;;;;;;;16.75;7.43;;;9.00;77.90;;;;;;5055811;28;20025;-79
2021/11/08 01:48:12;;;;;;;17.08;7.30;;;9.00;77.60;;;;;;5017853;28;20025;-80
2021/11/08 01:50:40;;;;;;;16.88;7.55;;;9.00;77.60;;;;;;5017503;28;20022;-79
2021/11/08 01:53:06;;;;;;;17.67;7.38;;;9.00;77.80;;;;;;5024893;28;20022;-79
2021/11/08 01:55:34;;;;;;;16.35;7.65;;;9.00;77.80;;;;;;5025675;28;20030;-79
2021/11/08 01:58:00;;;;;;;17.90;7.97;;;8.90;77.80;;;;;;5034433;28;20396;-79
2021/11/08 02:00:28;;;;;;;20.60;8.25;;;8.90;77.80;;;;;;5055906;28;20021;-79
2021/11/08 02:02:54;;;;;;;19.92;8.52;;;8.80;77.80;;;;;;5057272;28;20029;-79
2021/11/08 02:05:20;;;;;;;17.83;9.30;;;8.80;77.80;;;;;;5044942;28;20032;-79
2021/11/08 02:07:48;;;;;;;20.85;10.13;;;8.80;77.90;;;;;;5050806;28;20066;-79
2021/11/08 02:10:16;;;;;;;18.88;9.80;;;8.70;77.70;;;;;;5018470;28;20026;-79
2021/11/08 02:12:44;;;;;;;18.42;9.80;;;8.70;77.70;;;;;;5039694;28;20483;-79
2021/11/08 02:15:14;;;;;;;18.33;10.80;;;8.70;77.90;;;;;;5020129;28;20698;-80
2021/11/08 02:17:44;;;;;;;23.85;11.95;;;8.70;77.70;;;;;;5017486;28;20404;-79
2021/11/08 02:20:16;;;;;;;21.55;10.98;;;8.70;77.80;;;;;;5023305;28;20060;-79
2021/11/08 02:22:43;;;;;;;16.50;9.95;;;8.70;77.60;;;;;;5051437;28;20028;-79
2021/11/08 02:25:09;;;;;;;16.02;9.45;;;8.70;77.50;;;;;;5047064;28;20022;-79
2021/11/08 02:27:38;;;;;;;19.02;9.23;;;8.40;77.00;;;;;;5036917;28;20029;-79
2021/11/08 02:30:07;;;;;;;20.13;8.07;;;8.40;77.30;;;;;;5021382;28;20049;-79
2021/11/08 02:32:33;;;;;;;22.25;8.75;;;8.40;77.50;;;;;;5016991;28;20402;-79
2021/11/08 02:35:05;;;;;;;15.43;8.45;;;8.40;77.50;;;;;;5017195;28;20033;-79
2021/11/08 02:37:32;;;;;;;14.90;8.45;;;8.50;77.80;;;;;;5017349;28;20045;-79
2021/11/08 02:39:58;;;;;;;18.23;8.57;;;8.50;77.70;;;;;;5016956;28;20034;-79
2021/11/08 02:42:24;;;;;;;17.40;9.27;;;8.50;77.70;;;;;;5016937;28;20028;-79
2021/11/08 02:44:50;;;;;;;20.30;9.73;;;8.70;77.60;;;;;;5016268;28;20525;-79
2021/11/08 02:47:19;;;;;;;17.77;9.40;;;8.60;77.60;;;;;;5024509;28;20120;-80
2021/11/08 02:49:46;;;;;;;27.15;9.75;;;8.70;77.60;;;;;;5016540;28;20032;-79
2021/11/08 02:52:16;;;;;;;16.83;9.20;;;8.70;77.50;;;;;;5016717;28;20558;-79
2021/11/08 02:54:46;;;;;;;;;;;8.70;77.50;;;;;;5017157;28;20030;-80
2021/11/08 02:57:12;;;;;;;24.27;9.77;;;8.70;77.50;;;;;;5035634;28;19958;-79
2021/11/08 02:59:38;;;;;;;18.63;10.20;;;8.80;77.60;;;;;;5054875;28;20025;-80
2021/11/08 03:02:06;;;;;;;22.73;9.30;;;8.90;77.40;;;;;;5048152;28;20633;-79
2021/11/08 03:04:44;;;;;;;21.77;9.57;;;8.80;77.80;;;;;;5039581;28;20010;-79
2021/11/08 03:07:13;;;;;;;25.15;8.98;;;8.90;78.10;;;;;;5045666;28;20085;-79
2021/11/08 03:09:48;;;;;;;23.00;10.75;;;8.90;78.30;;;;;;5045906;28;20025;-79
2021/11/08 03:12:20;;;;;;;20.70;9.15;;;8.90;78.30;;;;;;5036333;28;20064;-79
2021/11/08 03:17:29;;;;;;;20.83;9.45;;;9.00;78.60;;;;;;5036357;28;20034;-79
2021/11/08 03:19:55;;;;;;;21.05;9.32;;;9.00;78.40;;;;;;5034289;28;20068;-79
2021/11/08 03:22:26;;;;;;;15.88;8.65;;;9.00;78.80;;;;;;5035835;28;20026;-79
2021/11/08 03:24:56;;;;;;;15.55;7.95;;;9.10;78.50;;;;;;5036511;28;20013;-79
2021/11/08 03:30:15;;;;;;;15.15;7.82;;;9.20;78.50;;;;;;5035899;28;20567;-79
2021/11/08 03:32:45;;;;;;;13.45;8.02;;;9.20;78.30;;;;;;5036616;28;20116;-80
2021/11/08 03:35:12;;;;;;;18.30;7.50;;;9.30;77.90;;;;;;5029654;28;20029;-79
2021/11/08 03:37:41;;;;;;;12.50;7.25;;;9.20;78.00;;;;;;5050250;28;20032;-79
2021/11/08 03:40:38;;;;;;;15.75;7.65;;;9.20;78.40;;;;;;5032943;28;20122;-79
2021/11/08 03:43:05;;;;;;;11.98;7.88;;;9.20;78.60;;;;;;5044006;28;20029;-80
2021/11/08 03:45:33;;;;;;;13.52;7.65;;;9.10;78.60;;;;;;5054073;28;20032;-80
2021/11/08 03:48:00;;;;;;;19.80;7.55;;;9.20;78.60;;;;;;5048936;28;20029;-79
2021/11/08 03:50:27;;;;;;;16.20;7.30;;;9.20;79.10;;;;;;5040127;28;20048;-79
2021/11/08 03:52:53;;;;;;;15.13;7.68;;;9.20;79.00;;;;;;5044329;28;20107;-80
2021/11/08 03:55:43;;;;;;;16.25;8.18;;;9.20;79.10;;;;;;5053420;28;20100;-79
2021/11/08 03:58:08;;;;;;;10.30;6.82;;;9.20;79.20;;;;;;5015353;28;20130;-79
2021/11/08 04:00:35;;;;;;;14.50;7.88;;;9.10;79.70;;;;;;5018448;28;20061;-79
2021/11/08 04:03:02;;;;;;;16.08;8.00;;;9.20;79.60;;;;;;5035247;28;20021;-79
2021/11/08 04:05:32;;;;;;;10.60;7.35;;;9.30;79.30;;;;;;5035220;28;20033;-80
2021/11/08 04:08:00;;;;;;;14.52;7.07;;;9.30;79.10;;;;;;5043340;28;20026;-79
2021/11/08 04:10:27;;;;;;;15.88;7.47;;;9.40;78.70;;;;;;5015406;28;20022;-79
2021/11/08 04:12:56;;;;;;;18.83;6.88;;;9.40;78.70;;;;;;5015386;28;20400;-79
2021/11/08 04:15:28;;;;;;;18.17;7.40;;;9.40;78.70;;;;;;5014788;28;20168;-79
2021/11/08 04:17:54;;;;;;;10.52;7.18;;;9.40;78.80;;;;;;5015088;28;20014;-79
2021/11/08 04:20:23;;;;;;;12.35;7.28;;;9.50;78.60;;;;;;5032411;28;20049;-79
2021/11/08 04:22:51;;;;;;;15.02;7.82;;;9.50;78.60;;;;;;5053901;28;20566;-79
2021/11/08 04:25:20;;;;;;;15.23;7.70;;;9.50;78.70;;;;;;5037977;28;20025;-79
2021/11/08 04:27:47;;;;;;;12.45;6.50;;;9.60;78.70;;;;;;5038615;28;20025;-79
2021/11/08 04:30:15;;;;;;;16.00;6.43;;;9.60;78.40;;;;;;5055013;28;20109;-79
2021/11/08 04:35:49;;;;;;;14.90;6.70;;;9.60;78.80;;;;;;5048590;28;20029;-79
2021/11/08 04:41:23;;;;;;;15.88;6.63;;;9.60;79.20;;;;;;5028683;28;20034;-79
2021/11/08 04:44:06;;;;;;;12.60;6.40;;;9.60;79.20;;;;;;5019325;28;20014;-80
2021/11/08 04:55:52;;;;;;;14.77;6.35;;;9.70;78.90;;;;;;5018854;28;20038;-79
2021/11/08 04:58:54;;;;;;;14.60;6.03;;;9.70;79.00;;;;;;5020650;28;20080;-79
2021/11/08 05:28:45;;;;;;;11.07;5.30;;;9.80;79.40;;;;;;5018577;28;20022;-79
2021/11/08 05:31:10;;;;;;;14.32;6.45;;;9.80;79.30;;;;;;5018265;28;20033;-79
2021/11/08 05:33:37;;;;;;;11.35;5.82;;;9.80;79.70;;;;;;5018004;28;20026;-79
2021/11/08 05:36:03;;;;;;;11.43;5.80;;;9.70;79.60;;;;;;5018133;28;20036;-80
2021/11/08 05:38:29;;;;;;;11.63;5.93;;;9.80;79.70;;;;;;5018318;28;20530;-79
2021/11/08 05:40:54;;;;;;;14.27;6.05;;;9.70;79.80;;;;;;5017727;28;20059;-76
2021/11/08 05:43:20;;;;;;;15.80;6.93;;;9.80;79.90;;;;;;5017763;28;20057;-79
2021/11/08 05:45:45;;;;;;;15.00;7.10;;;9.70;80.10;;;;;;5016701;28;20033;-77
2021/11/08 05:48:11;;;;;;;14.13;7.20;;;9.60;80.40;;;;;;5030419;28;20423;-80
2021/11/08 05:50:39;;;;;;;21.27;7.93;;;9.60;80.50;;;;;;5057064;28;20384;-78
2021/11/08 05:53:08;;;;;;;12.80;6.28;;;9.70;80.10;;;;;;5023413;28;20391;-78
2021/11/08 05:55:51;;;;;;;15.77;7.38;;;9.70;80.20;;;;;;5016659;28;20101;-79
2021/11/08 06:50:48;;;;;;;14.95;8.98;;;9.80;79.70;;;;;;5028852;28;20029;-85
2021/11/08 06:53:18;;;;;;;15.35;8.82;;;9.80;79.80;;;;;;5044562;28;20017;-85
2021/11/08 06:55:48;;;;;;;12.50;6.50;;;9.80;79.90;;;;;;5035561;28;20101;-84
2021/11/08 06:58:18;;;;;;;13.60;7.05;;;9.80;79.90;;;;;;5042316;28;20036;-84
2021/11/08 07:00:45;;;;;;;9.68;6.15;;;9.80;79.80;;;;;;5033324;28;20017;-84
2021/11/08 07:03:51;;;;;;;13.88;7.07;;;9.90;79.60;;;;;;5034487;28;20495;-84
2021/11/08 07:06:16;;;;;;;14.35;9.43;;;9.80;79.40;;;;;;5020336;28;20392;-84
2021/11/08 07:08:42;;;;;;;17.85;10.35;;;9.80;79.90;;;;;;5052737;28;20104;-85
2021/11/08 07:11:08;;;;;;;17.35;9.20;;;9.90;79.90;;;;;;5034222;28;20022;-85
2021/11/08 07:13:33;;;;;;;19.13;9.50;;;9.90;79.80;;;;;;5016050;28;20033;-85
2021/11/08 07:15:59;;;;;;;20.02;8.82;;;9.90;79.80;;;;;;5027074;28;20036;-84
2021/11/08 07:18:25;;;;;;;12.27;7.32;;;9.90;79.90;;;;;;5035667;28;20042;-84
2021/11/08 07:20:50;;;;;;;12.05;7.53;;;9.90;80.10;;;;;;5033923;28;20061;-84
2021/11/08 07:23:16;;;;;;;15.45;7.50;;;9.90;79.70;;;;;;5014765;28;20037;-84
2021/11/08 07:25:42;;;;;;;15.07;7.78;;;9.80;79.80;;;;;;5033025;28;20018;-85
2021/11/08 07:28:11;;;;;;;12.80;6.78;;;9.80;79.80;;;;;;5019452;28;20544;-84
2021/11/08 07:30:41;;;;;;;14.68;7.22;;;9.90;80.00;;;;;;5042312;28;20036;-85
2021/11/08 07:33:07;;;;;;;17.50;7.22;;;9.90;80.10;;;;;;5045137;28;20148;-84
2021/11/08 07:35:33;;;;;;;13.95;7.85;;;9.90;80.00;;;;;;5030791;28;20128;-84
2021/11/08 07:37:58;;;;;;;12.02;7.07;;;10.00;79.70;;;;;;5025222;28;20480;-84
2021/11/08 07:40:24;;;;;;;15.43;8.43;;;10.00;79.70;;;;;;5031982;28;20021;-84
2021/11/08 07:42:50;;;;;;;25.52;14.13;;;10.10;79.70;;;;;;5009558;28;20063;-85
2021/11/08 07:45:16;;;;;;;20.23;14.18;;;10.20;79.60;;;;;;5034282;28;20021;-85
2021/11/08 07:47:41;;;;;;;24.38;12.98;;;10.20;79.50;;;;;;5034977;28;20040;-85
2021/11/08 07:50:08;;;;;;;28.63;15.52;;;10.20;79.50;;;;;;5033426;28;20025;-85
2021/11/08 07:52:33;;;;;;;23.15;11.88;;;10.30;79.60;;;;;;5033882;28;20033;-85
2021/11/08 07:54:59;;;;;;;16.02;7.90;;;10.30;79.30;;;;;;5034217;28;20117;-84
2021/11/08 07:57:25;;;;;;;18.70;11.88;;;10.30;79.20;;;;;;5035289;28;20045;-85
2021/11/08 07:59:51;;;;;;;20.20;10.25;;;10.30;79.50;;;;;;5033612;28;20079;-85
2021/11/08 08:02:16;;;;;;;16.40;8.82;;;10.40;79.40;;;;;;5026885;28;20054;-85
2021/11/08 08:04:42;;;;;;;13.68;6.28;;;10.50;79.20;;;;;;5039453;28;20104;-85
2021/11/08 08:07:08;;;;;;;13.45;6.18;;;10.50;79.10;;;;;;5050269;28;20021;-86
2021/11/08 08:09:35;;;;;;;13.38;7.47;;;10.50;79.00;;;;;;5039515;28;20061;-85
2021/11/08 08:12:01;;;;;;;11.50;7.90;;;10.60;79.10;;;;;;5015079;28;20109;-86
2021/11/08 08:14:27;;;;;;;20.45;12.13;;;10.70;78.90;;;;;;5015211;28;20053;-85
2021/11/08 08:16:53;;;;;;;16.38;10.18;;;10.70;78.80;;;;;;5020069;28;20030;-86
2021/11/08 08:19:20;;;;;;;16.83;9.57;;;10.80;78.70;;;;;;5033942;28;20041;-85
2021/11/08 08:21:46;;;;;;;17.27;6.53;;;10.80;78.70;;;;;;5034563;28;20090;-85
2021/11/08 08:24:13;;;;;;;13.57;6.68;;;10.90;78.60;;;;;;5032322;28;20443;-85
2021/11/08 08:26:41;;;;;;;19.05;8.57;;;11.00;78.20;;;;;;5022869;28;20021;-85
2021/11/08 08:29:09;;;;;;;12.57;5.72;;;11.00;78.20;;;;;;5038398;28;20026;-84
2021/11/08 08:31:38;;;;;;;16.58;6.63;;;11.00;78.50;;;;;;5027373;28;20557;-85
2021/11/08 08:34:04;;;;;;;12.85;6.88;;;11.00;78.90;;;;;;5034372;28;20507;-85
2021/11/08 08:36:31;;;;;;;11.20;5.72;;;11.10;78.90;;;;;;5033528;28;20027;-85
2021/11/08 08:38:56;;;;;;;10.98;5.50;;;11.20;78.50;;;;;;5034574;28;20030;-85
2021/11/08 08:41:23;;;;;;;11.32;5.95;;;11.20;78.30;;;;;;5034295;28;20036;-84
2021/11/08 08:43:49;;;;;;;11.35;5.60;;;11.30;78.50;;;;;;5033544;28;20022;-85
2021/11/08 08:46:15;;;;;;;14.38;6.50;;;11.30;78.70;;;;;;5042635;28;20375;-85
2021/11/08 08:48:42;;;;;;;11.98;6.32;;;11.40;78.30;;;;;;5032927;28;20084;-85
2021/11/08 08:51:08;;;;;;;16.42;7.30;;;11.50;78.10;;;;;;5034714;28;20034;-86
2021/11/08 08:53:35;;;;;;;19.95;6.20;;;11.40;77.90;;;;;;5034543;28;20033;-86
2021/11/08 08:56:01;;;;;;;21.42;6.78;;;11.40;78.20;;;;;;5044323;28;20034;-85
2021/11/08 08:58:30;;;;;;;14.25;5.63;;;11.50;78.50;;;;;;5045024;28;20120;-85
2021/11/08 09:00:56;;;;;;;13.88;6.38;;;11.60;78.00;;;;;;5042411;28;20023;-84
2021/11/08 09:03:22;;;;;;;13.27;6.85;;;11.70;78.00;;;;;;5029158;28;20396;-85
2021/11/08 09:05:49;;;;;;;14.73;6.25;;;11.80;77.70;;;;;;5014683;28;20010;-85
2021/11/08 09:08:15;;;;;;;13.65;6.53;;;11.90;77.60;;;;;;5022620;28;20440;-85
2021/11/08 09:10:41;;;;;;;15.50;7.22;;;12.00;77.50;;;;;;5014918;28;20251;-85
2021/11/08 09:13:08;;;;;;;23.27;6.88;;;11.90;77.30;;;;;;5014844;28;20037;-85
2021/11/08 09:15:35;;;;;;;11.95;5.60;;;12.00;77.10;;;;;;5013287;28;20582;-85
2021/11/08 09:18:03;;;;;;;13.82;5.05;;;12.00;77.30;;;;;;5028553;28;20097;-85
2021/11/08 09:20:30;;;;;;;11.02;5.43;;;12.20;77.10;;;;;;5020532;28;20073;-84
2021/11/08 09:22:57;;;;;;;7.57;4.50;;;12.20;77.50;;;;;;5013216;28;20598;-85
2021/11/08 09:25:25;;;;;;;7.15;4.43;;;12.20;76.80;;;;;;5031507;28;20030;-85
2021/11/08 09:27:59;;;;;;;12.43;5.05;;;12.40;76.80;;;;;;5024388;28;20025;-85
2021/11/08 09:30:29;;;;;;;9.95;4.93;;;12.70;76.40;;;;;;5037945;28;20026;-85
2021/11/08 09:32:56;;;;;;;13.57;4.93;;;13.00;75.50;;;;;;5037839;28;20029;-86
2021/11/08 09:35:23;;;;;;;11.48;4.63;;;13.20;74.70;;;;;;5037654;28;20025;-85
2021/11/08 09:37:50;;;;;;;8.77;4.32;;;13.20;74.80;;;;;;5024084;28;20054;-85
2021/11/08 09:40:23;;;;;;;11.80;4.40;;;13.20;74.60;;;;;;5017916;28;20071;-86
2021/11/08 09:42:53;;;;;;;11.90;4.50;;;13.10;74.80;;;;;;5019279;28;20029;-85
2021/11/08 09:45:18;;;;;;;13.25;4.20;;;13.30;74.70;;;;;;5037231;28;20021;-85
2021/11/08 09:47:45;;;;;;;12.75;3.88;;;13.50;74.00;;;;;;5052262;28;20074;-85
2021/11/08 09:50:14;;;;;;;14.05;4.75;;;13.80;72.80;;;;;;5057396;28;20027;-86
2021/11/08 09:52:43;;;;;;;11.60;5.22;;;14.00;73.30;;;;;;5035337;28;20053;-85
2021/11/08 09:55:12;;;;;;;13.82;4.90;;;13.90;72.40;;;;;;5017169;28;20026;-85
2021/11/08 09:57:39;;;;;;;11.75;4.70;;;14.00;72.30;;;;;;5033170;28;20030;-86
2021/11/08 10:00:17;;;;;;;16.50;5.47;;;14.10;71.80;;;;;;5017601;28;20057;-86
2021/11/08 10:02:52;;;;;;;15.38;4.97;;;14.20;72.00;;;;;;5017992;28;20435;-86
2021/11/08 10:05:19;;;;;;;9.85;4.38;;;14.20;72.60;;;;;;5045655;28;20036;-86
2021/11/08 10:07:45;;;;;;;12.45;4.50;;;14.30;72.30;;;;;;5047736;28;20463;-86
2021/11/08 10:10:11;;;;;;;15.02;4.20;;;14.30;71.90;;;;;;5045063;28;20610;-86
2021/11/08 10:12:37;;;;;;;11.23;4.22;;;14.30;70.60;;;;;;5025560;28;20069;-85
2021/11/08 10:15:03;;;;;;;8.95;3.25;;;14.40;71.00;;;;;;5017247;28;20030;-86
2021/11/08 10:17:29;;;;;;;15.43;3.10;;;14.40;71.10;;;;;;5017136;28;20580;-86
2021/11/08 10:19:55;;;;;;;9.02;2.50;;;14.50;69.80;;;;;;5017322;28;20065;-87
2021/11/08 10:22:21;;;;;;;11.98;3.40;;;14.50;70.30;;;;;;5016794;28;20060;-87
2021/11/08 10:24:49;;;;;;;8.98;3.28;;;14.50;68.90;;;;;;5016811;28;20030;-86
2021/11/08 10:27:17;;;;;;;8.73;2.42;;;14.60;69.20;;;;;;5032259;28;20030;-86
2021/11/08 10:29:46;;;;;;;9.77;2.65;;;14.70;69.10;;;;;;5016817;28;20061;-87
2021/11/08 10:32:13;;;;;;;14.60;3.40;;;14.60;68.30;;;;;;5016927;28;20460;-87
2021/11/08 10:34:56;;;;;;;6.30;2.10;;;14.60;68.10;;;;;;5016726;28;20526;-87
2021/11/08 10:37:28;;;;;;;13.40;3.53;;;14.60;67.90;;;;;;5047434;28;20025;-81
2021/11/08 10:39:55;;;;;;;9.07;2.45;;;14.50;68.10;;;;;;5027331;28;20072;-87
2021/11/08 10:42:24;;;;;;;8.95;2.70;;;14.50;69.50;;;;;;5051946;28;20033;-87
2021/11/08 10:44:50;;;;;;;6.07;1.98;;;14.50;66.80;;;;;;5036562;28;20132;-87
2021/11/08 10:47:19;;;;;;;12.25;3.00;;;14.60;67.00;;;;;;5034930;28;20103;-86
2021/11/08 10:49:46;;;;;;;11.20;2.75;;;14.60;67.50;;;;;;5020748;28;20033;-87
2021/11/08 10:52:14;;;;;;;13.70;2.47;;;14.80;67.40;;;;;;5015598;28;20026;-88
2021/11/08 10:54:54;;;;;;;12.50;2.25;;;14.80;67.20;;;;;;5024105;28;20032;-86
2021/11/08 10:57:23;;;;;;;7.45;2.30;;;14.90;66.80;;;;;;5035325;28;20029;-90
2021/11/08 10:59:51;;;;;;;11.20;2.58;;;14.90;66.20;;;;;;5033889;28;20436;-90
2021/11/08 11:02:22;;;;;;;12.07;3.45;;;15.00;65.40;;;;;;5039043;28;20065;-86
2021/11/08 11:05:03;;;;;;;9.95;2.30;;;15.00;66.40;;;;;;5023448;28;20029;-83
2021/11/08 11:07:34;;;;;;;7.68;3.05;;;14.90;66.80;;;;;;5029921;28;20037;-83
2021/11/08 11:10:01;;;;;;;16.75;3.95;;;14.70;68.20;;;;;;5024765;28;20041;-81
2021/11/08 11:12:29;;;;;;;10.10;3.05;;;14.60;67.90;;;;;;5020555;28;20022;-83
2021/11/08 11:15:10;;;;;;;11.05;2.88;;;14.50;68.40;;;;;;5028737;28;20044;-84
2021/11/08 11:17:47;;;;;;;10.15;2.55;;;14.40;67.00;;;;;;5026572;28;20022;-84
2021/11/08 11:20:17;;;;;;;12.00;2.38;;;14.60;67.10;;;;;;5029690;28;20959;-80
2021/11/08 11:22:52;;;;;;;13.75;2.42;;;14.70;65.20;;;;;;5024334;28;20052;-82
2021/11/08 11:25:21;;;;;;;6.97;1.50;;;14.70;65.90;;;;;;5024426;28;20026;-87
2021/11/08 11:27:50;;;;;;;10.40;1.90;;;14.80;64.50;;;;;;5042591;28;20037;-84
2021/11/08 11:30:28;;;;;;;14.70;2.88;;;14.90;65.20;;;;;;5035110;28;20131;-86
2021/11/08 11:33:10;;;;;;;8.88;1.98;;;15.00;64.40;;;;;;5032645;28;20083;-86
2021/11/08 11:35:48;;;;;;;6.32;2.00;;;15.00;63.80;;;;;;5031974;28;20013;-85
2021/11/08 11:38:24;;;;;;;10.05;2.00;;;15.10;64.10;;;;;;5030278;28;20091;-85
2021/11/08 11:41:02;;;;;;;9.13;3.03;;;15.10;62.20;;;;;;5033917;28;20018;-85
2021/11/08 11:43:31;;;;;;;9.07;3.72;;;15.00;62.80;;;;;;5029953;28;20018;-86
2021/11/08 11:45:57;;;;;;;4.88;1.60;;;14.90;64.10;;;;;;5034379;28;20021;-86
2021/11/08 11:48:29;;;;;;;10.50;2.17;;;14.80;63.70;;;;;;5034498;28;20040;-87
2021/11/08 11:50:56;;;;;;;6.57;1.88;;;14.70;64.50;;;;;;5026914;28;20026;-81
2021/11/08 11:53:24;;;;;;;10.30;2.03;;;14.50;63.50;;;;;;5032835;28;20029;-86
2021/11/08 11:55:51;;;;;;;7.95;1.75;;;14.40;64.70;;;;;;5035260;28;20024;-84
2021/11/08 11:58:19;;;;;;;9.57;1.50;;;14.30;64.50;;;;;;5029456;28;20026;-88
2021/11/08 12:00:48;;;;;;;6.97;1.58;;;14.30;64.30;;;;;;5030846;28;20026;-89
2021/11/08 12:03:16;;;;;;;7.80;1.70;;;14.30;65.00;;;;;;5035670;28;20105;-79
2021/11/08 12:05:45;;;;;;;8.30;1.70;;;14.60;65.10;;;;;;5035161;28;20047;-81
2021/11/08 12:08:14;;;;;;;11.35;1.80;;;14.70;62.60;;;;;;5052286;28;20449;-81
2021/11/08 12:10:52;;;;;;;9.70;2.42;;;14.90;60.40;;;;;;5054624;28;20400;-79
2021/11/08 12:13:25;;;;;;;8.05;1.95;;;15.10;61.20;;;;;;5048797;28;20468;-81
2021/11/08 12:15:51;;;;;;;12.57;2.13;;;15.30;61.10;;;;;;5026899;28;20032;-79
2021/11/08 12:18:18;;;;;;;7.68;1.83;;;15.50;60.60;;;;;;5053730;28;20487;-77
2021/11/08 12:20:56;;;;;;;6.57;1.55;;;15.30;58.50;;;;;;5014526;28;20046;-76
2021/11/08 12:23:30;;;;;;;11.27;1.88;;;15.20;58.30;;;;;;5023756;28;20492;-85
2021/11/08 12:25:58;;;;;;;7.72;2.00;;;15.30;60.50;;;;;;5025346;28;20593;-83
2021/11/08 12:28:26;;;;;;;7.90;2.25;;;15.20;60.10;;;;;;5034260;28;20018;-80
2021/11/08 12:30:59;;;;;;;11.00;2.42;;;15.40;60.20;;;;;;5020858;28;20056;-81
2021/11/08 12:33:27;;;;;;;9.18;2.25;;;15.50;60.00;;;;;;5027854;28;20076;-81
2021/11/08 12:36:00;;;;;;;13.27;2.20;;;15.70;60.50;;;;;;5030508;28;20060;-81
2021/11/08 12:38:34;;;;;;;6.07;2.10;;;15.80;59.80;;;;;;5021117;28;20049;-82
2021/11/08 12:41:09;;;;;;;10.05;1.88;;;16.00;59.50;;;;;;5028010;28;20041;-85
2021/11/08 12:43:36;;;;;;;11.05;2.40;;;16.20;58.80;;;;;;5024885;28;20093;-84
2021/11/08 12:46:09;;;;;;;10.27;2.17;;;16.30;57.00;;;;;;5026746;28;20071;-85
2021/11/08 12:48:37;;;;;;;10.45;2.65;;;16.30;58.90;;;;;;5037996;28;20018;-86
2021/11/08 12:51:05;;;;;;;7.00;2.08;;;16.00;58.00;;;;;;5031479;28;20026;-85
2021/11/08 12:53:47;;;;;;;13.65;2.40;;;15.90;59.10;;;;;;5014495;28;20057;-85
2021/11/08 12:56:25;;;;;;;10.00;1.98;;;15.80;59.50;;;;;;5013128;28;20030;-85
2021/11/08 12:58:57;;;;;;;7.15;2.13;;;15.70;59.80;;;;;;5015240;28;20160;-84
2021/11/08 13:01:35;;;;;;;8.88;2.30;;;15.80;60.70;;;;;;5018814;28;20033;-85
2021/11/08 13:04:06;;;;;;;10.02;2.35;;;15.70;60.10;;;;;;5018802;28;20072;-85
2021/11/08 13:06:34;;;;;;;10.90;3.05;;;15.70;60.90;;;;;;5027344;28;20024;-85
2021/11/08 13:09:09;;;;;;;14.85;3.17;;;15.70;60.40;;;;;;5058477;28;20098;-85
2021/11/08 13:11:41;;;;;;;11.93;2.83;;;15.70;60.80;;;;;;5044362;28;20030;-85
2021/11/08 13:14:07;;;;;;;9.82;2.13;;;15.60;61.50;;;;;;5017320;28;20072;-85
2021/11/08 13:16:41;;;;;;;10.32;2.80;;;15.60;61.10;;;;;;5018521;28;20362;-85
2021/11/08 13:19:10;;;;;;;8.95;2.03;;;15.60;61.50;;;;;;5017155;28;20092;-85
2021/11/08 13:21:37;;;;;;;10.13;2.97;;;15.60;61.70;;;;;;5017087;28;20058;-85
2021/11/08 13:24:05;;;;;;;12.98;2.65;;;15.60;60.80;;;;;;5029437;28;20033;-85
2021/11/08 13:26:32;;;;;;;11.73;2.42;;;15.60;61.40;;;;;;5018393;28;20026;-85
2021/11/08 13:28:59;;;;;;;7.22;2.10;;;15.50;61.10;;;;;;5016849;28;20094;-84
2021/11/08 13:31:26;;;;;;;7.45;1.90;;;15.50;61.70;;;;;;5016706;28;20034;-87
2021/11/08 13:33:56;;;;;;;8.95;2.58;;;15.60;61.00;;;;;;5018256;28;20101;-82
2021/11/08 13:36:22;;;;;;;11.53;2.63;;;15.70;61.80;;;;;;5018056;28;20066;-82
2021/11/08 13:38:52;;;;;;;14.23;2.88;;;15.80;60.90;;;;;;5015073;28;20049;-81
2021/11/08 13:41:27;;;;;;;11.20;2.40;;;15.80;61.70;;;;;;5037052;28;20068;-82
2021/11/08 13:43:57;;;;;;;8.75;2.08;;;15.70;61.90;;;;;;5028258;28;20091;-82
2021/11/08 13:46:24;;;;;;;;;;;15.50;61.50;;;;;;5036628;28;20054;-80
2021/11/08 13:48:54;;;;;;;10.38;2.25;;;15.40;61.40;;;;;;5041792;28;20501;-80
2021/11/08 13:51:37;;;;;;;11.93;2.10;;;15.30;62.50;;;;;;5036284;28;20044;-77
2021/11/08 13:54:10;;;;;;;6.45;1.98;;;15.20;62.40;;;;;;5031811;28;20037;-80
2021/11/08 13:56:42;;;;;;;11.25;2.38;;;15.10;62.70;;;;;;5025624;28;20048;-78
2021/11/08 13:59:17;;;;;;;6.43;1.50;;;15.00;63.70;;;;;;5035708;28;20080;-81
2021/11/08 14:01:45;;;;;;;7.15;1.73;;;14.90;63.90;;;;;;5036900;28;20423;-82
2021/11/08 14:04:12;;;;;;;12.15;2.53;;;14.90;64.60;;;;;;5035780;28;20021;-82
2021/11/08 14:06:41;;;;;;;7.43;2.40;;;14.90;63.70;;;;;;5039938;28;20033;-85
2021/11/08 14:09:26;;;;;;;10.55;2.20;;;14.80;63.60;;;;;;5040815;28;20080;-86
2021/11/08 14:11:59;;;;;;;10.45;2.78;;;14.90;63.30;;;;;;5032670;28;20052;-83
2021/11/08 14:14:37;;;;;;;8.95;2.95;;;14.90;64.70;;;;;;5018128;28;20030;-85
2021/11/08 14:17:33;;;;;;;6.93;2.10;;;15.00;63.70;;;;;;5035584;28;20626;-84
2021/11/08 14:20:10;;;;;;;12.73;2.58;;;15.00;63.80;;;;;;5035020;28;20029;-84
2021/11/08 14:23:04;;;;;;;9.98;2.25;;;15.00;63.60;;;;;;5031866;28;20045;-91
2021/11/08 14:25:30;;;;;;;7.03;1.90;;;14.90;62.90;;;;;;5017488;28;20546;-85
2021/11/08 14:27:58;;;;;;;13.45;2.45;;;14.90;62.30;;;;;;5036530;28;20045;-82
2021/11/08 14:30:25;;;;;;;7.30;1.70;;;14.90;62.20;;;;;;5036898;28;20388;-82
2021/11/08 14:32:52;;;;;;;8.45;2.15;;;14.90;62.40;;;;;;5022625;28;20030;-77
2021/11/08 14:35:23;;;;;;;7.35;1.98;;;14.90;63.30;;;;;;5024009;28;20021;-82
2021/11/08 14:38:05;;;;;;;;;;;15.00;63.30;;;;;;5057335;28;20067;-82
2021/11/08 14:40:37;;;;;;;6.18;1.80;;;15.00;62.80;;;;;;5042821;28;19980;-83
2021/11/08 14:43:17;;;;;;;9.45;2.63;;;15.00;62.90;;;;;;5021824;28;20025;-78
2021/11/08 14:46:06;;;;;;;8.80;2.17;;;15.00;62.60;;;;;;5048619;28;20029;-77